createdAt,value
2023-05-07T00:03:13.994Z,11.84
2023-05-07T00:08:13.865Z,11.93
2023-05-07T00:13:13.861Z,11.94
2023-05-07T00:18:13.873Z,11.91
2023-05-07T00:23:13.670Z,11.88
2023-05-07T00:28:13.608Z,11.87
2023-05-07T00:33:13.538Z,11.96
2023-05-07T00:38:13.477Z,11.98
2023-05-07T00:43:13.406Z,11.75
2023-05-07T00:48:13.334Z,11.69
2023-05-07T00:53:13.271Z,11.68
2023-05-07T00:58:13.209Z,11.68
2023-05-07T01:03:13.145Z,11.63
2023-05-07T01:08:13.061Z,11.59
2023-05-07T01:13:13.038Z,11.54
2023-05-07T01:18:12.994Z,11.36
2023-05-07T01:23:12.874Z,11.22
2023-05-07T01:28:12.802Z,11.11
2023-05-07T01:33:12.744Z,10.99
2023-05-07T01:38:12.670Z,10.96
2023-05-07T01:43:12.616Z,10.99
2023-05-07T01:48:12.556Z,11.09
2023-05-07T01:53:12.517Z,11.01
2023-05-07T01:58:12.403Z,10.98
2023-05-07T02:03:12.416Z,10.99
2023-05-07T02:08:12.270Z,10.88
2023-05-07T02:13:12.269Z,10.86
2023-05-07T02:18:12.132Z,10.88
2023-05-07T02:23:12.077Z,10.86
2023-05-07T02:28:11.998Z,10.68
2023-05-07T02:33:12.014Z,10.77
2023-05-07T02:38:11.859Z,10.77
2023-05-07T02:43:11.811Z,10.77
2023-05-07T02:48:11.726Z,10.75
2023-05-07T02:53:11.668Z,10.70
2023-05-07T02:58:11.594Z,10.67
2023-05-07T03:03:11.608Z,10.60
2023-05-07T03:08:11.457Z,10.60
2023-05-07T03:13:11.431Z,10.63
2023-05-07T03:18:11.517Z,10.60
2023-05-07T03:23:11.460Z,10.60
2023-05-07T03:28:11.484Z,10.66
2023-05-07T03:33:11.480Z,10.60
2023-05-07T03:38:11.500Z,10.71
2023-05-07T03:43:11.487Z,10.71
2023-05-07T03:48:10.951Z,10.66
2023-05-07T03:53:10.874Z,10.56
2023-05-07T03:58:10.773Z,10.53
2023-05-07T04:03:10.801Z,10.56
2023-05-07T04:08:10.646Z,10.62
2023-05-07T04:13:10.657Z,10.66
2023-05-07T04:18:10.508Z,10.60
2023-05-07T04:23:10.458Z,10.58
2023-05-07T04:28:10.376Z,10.63
2023-05-07T04:33:10.368Z,10.68
2023-05-07T04:38:10.237Z,10.74
2023-05-07T04:43:10.195Z,10.66
2023-05-07T04:48:10.181Z,10.67
2023-05-07T04:53:10.048Z,10.67
2023-05-07T04:58:09.975Z,10.63
2023-05-07T05:03:10.005Z,10.66
2023-05-07T05:08:09.834Z,10.67
2023-05-07T05:13:09.796Z,10.68
2023-05-07T05:18:09.713Z,10.71
2023-05-07T05:23:09.654Z,10.81
2023-05-07T05:28:09.604Z,10.85
2023-05-07T05:33:09.586Z,10.91
2023-05-07T05:38:09.455Z,10.92
2023-05-07T05:43:09.418Z,11.01
2023-05-07T05:48:09.328Z,11.18
2023-05-07T05:53:09.239Z,11.23
2023-05-07T05:58:09.166Z,11.27
2023-05-07T06:03:09.124Z,11.25
2023-05-07T06:08:09.043Z,11.32
2023-05-07T06:13:09.068Z,11.26
2023-05-07T06:18:08.922Z,11.41
2023-05-07T06:23:08.846Z,11.18
2023-05-07T06:28:08.758Z,11.35
2023-05-07T06:33:08.790Z,11.35
2023-05-07T06:38:08.623Z,11.51
2023-05-07T06:43:08.576Z,11.50
2023-05-07T06:48:08.560Z,11.72
2023-05-07T06:53:08.440Z,11.73
2023-05-07T06:58:08.357Z,11.62
2023-05-07T07:03:08.318Z,11.40
2023-05-07T07:08:08.218Z,11.63
2023-05-07T07:13:08.176Z,11.83
2023-05-07T07:18:08.110Z,11.83
2023-05-07T07:23:08.028Z,11.77
2023-05-07T07:28:07.955Z,11.68
2023-05-07T07:33:07.915Z,11.70
2023-05-07T07:38:07.813Z,11.59
2023-05-07T07:43:07.799Z,11.36
2023-05-07T07:48:07.721Z,11.60
2023-05-07T07:53:07.676Z,11.66
2023-05-07T07:58:07.551Z,11.59
2023-05-07T08:03:07.711Z,11.78
2023-05-07T08:08:07.424Z,11.73
2023-05-07T08:13:07.488Z,11.90
2023-05-07T08:18:07.330Z,12.06
2023-05-07T08:23:07.286Z,12.02
2023-05-07T08:28:09.608Z,12.05
2023-05-07T08:33:07.120Z,12.26
2023-05-07T08:38:07.024Z,12.35
2023-05-07T08:43:06.956Z,12.35
2023-05-07T08:48:06.959Z,12.28
2023-05-07T08:53:06.831Z,12.19
2023-05-07T08:58:06.758Z,12.23
2023-05-07T09:03:06.824Z,12.26
2023-05-07T09:08:06.617Z,12.30
2023-05-07T09:13:06.608Z,12.28
2023-05-07T09:18:06.512Z,12.39
2023-05-07T09:23:06.423Z,12.24
2023-05-07T09:28:06.349Z,12.19
2023-05-07T09:33:06.334Z,12.05
2023-05-07T09:38:06.212Z,12.21
2023-05-07T09:43:06.154Z,12.28
2023-05-07T09:48:06.105Z,12.57
2023-05-07T09:53:06.021Z,13.03
2023-05-07T09:58:05.957Z,13.00
2023-05-07T10:03:05.978Z,12.85
2023-05-07T10:08:05.862Z,13.00
2023-05-07T10:13:05.803Z,12.79
2023-05-07T10:18:05.808Z,13.19
2023-05-07T10:23:05.626Z,13.00
2023-05-07T10:28:05.552Z,12.98
2023-05-07T10:33:05.538Z,13.15
2023-05-07T10:38:05.504Z,13.52
2023-05-07T10:43:06.459Z,13.53
2023-05-07T10:48:11.174Z,13.43
2023-05-07T10:53:06.272Z,13.36
2023-05-07T10:58:05.153Z,12.98
2023-05-07T11:03:05.158Z,12.79
2023-05-07T11:08:05.036Z,12.80
2023-05-07T11:13:05.023Z,13.08
2023-05-07T11:18:04.979Z,13.33
2023-05-07T11:23:04.821Z,13.23
2023-05-07T11:28:04.773Z,13.19
2023-05-07T11:33:04.781Z,13.09
2023-05-07T11:38:04.618Z,13.00
2023-05-07T11:43:04.543Z,13.05
2023-05-07T11:48:04.567Z,12.97
2023-05-07T11:53:04.409Z,13.11
2023-05-07T11:58:04.354Z,13.03
2023-05-07T12:03:04.423Z,12.95
2023-05-07T12:08:04.216Z,13.01
2023-05-07T12:13:04.178Z,13.23
2023-05-07T12:18:04.155Z,13.30
2023-05-07T12:23:04.021Z,13.09
2023-05-07T12:28:03.951Z,13.23
2023-05-07T12:33:03.919Z,13.30
2023-05-07T12:38:03.833Z,13.15
2023-05-07T12:43:03.770Z,13.61
2023-05-07T12:48:03.743Z,13.78
2023-05-07T12:53:03.623Z,13.69
2023-05-07T12:58:03.562Z,13.78
2023-05-07T13:03:03.654Z,13.92
2023-05-07T13:08:03.432Z,13.94
2023-05-07T13:13:03.397Z,13.95
2023-05-07T13:18:03.356Z,13.91
2023-05-07T13:23:03.208Z,13.77
2023-05-07T13:28:10.993Z,14.02
2023-05-07T13:33:03.144Z,14.02
2023-05-07T13:38:03.010Z,14.44
2023-05-07T13:43:02.960Z,14.59
2023-05-07T13:48:02.938Z,13.99
2023-05-07T13:53:02.798Z,13.98
2023-05-07T13:58:07.160Z,14.14
2023-05-07T14:03:02.723Z,14.29
2023-05-07T14:08:02.629Z,14.54
2023-05-07T14:13:02.597Z,14.90
2023-05-07T14:18:02.527Z,14.68
2023-05-07T14:23:02.399Z,14.25
2023-05-07T14:28:02.346Z,14.18
2023-05-07T14:33:02.310Z,14.30
2023-05-07T14:38:02.217Z,14.23
2023-05-07T14:43:02.127Z,14.32
2023-05-07T14:48:02.172Z,14.78
2023-05-07T14:53:02.002Z,14.65
2023-05-07T14:58:01.958Z,14.50
2023-05-07T15:03:01.937Z,14.50
2023-05-07T15:08:01.817Z,14.90
2023-05-07T15:13:01.782Z,14.48
2023-05-07T15:18:01.737Z,14.41
2023-05-07T15:23:01.614Z,14.41
2023-05-07T15:28:01.549Z,14.51
2023-05-07T15:33:01.521Z,14.53
2023-05-07T15:38:01.415Z,14.77
2023-05-07T15:43:01.361Z,14.55
2023-05-07T15:48:01.325Z,14.53
2023-05-07T15:53:01.211Z,14.41
2023-05-07T15:58:01.183Z,14.43
2023-05-07T16:03:01.179Z,14.30
2023-05-07T16:08:01.043Z,14.43
2023-05-07T16:13:00.972Z,14.30
2023-05-07T16:18:00.985Z,14.12
2023-05-07T16:23:00.826Z,14.15
2023-05-07T16:28:00.767Z,14.12
2023-05-07T16:33:00.757Z,14.18
2023-05-07T16:38:00.639Z,14.20
2023-05-07T16:43:00.564Z,14.15
2023-05-07T16:48:00.613Z,13.98
2023-05-07T16:53:00.413Z,14.03
2023-05-07T16:58:00.370Z,14.03
2023-05-07T17:03:00.381Z,13.82
2023-05-07T17:08:00.222Z,13.71
2023-05-07T17:13:00.215Z,13.56
2023-05-07T17:18:00.219Z,13.53
2023-05-07T17:23:00.025Z,13.51
2023-05-07T17:27:59.953Z,13.40
2023-05-07T17:33:09.350Z,13.73
2023-05-07T17:38:00.842Z,13.84
2023-05-07T17:42:59.811Z,13.76
2023-05-07T17:47:59.753Z,13.34
2023-05-07T17:52:59.610Z,13.13
2023-05-07T17:57:59.561Z,12.97
2023-05-07T18:02:59.555Z,12.85
2023-05-07T18:07:59.429Z,12.78
2023-05-07T18:12:59.431Z,12.67
2023-05-07T18:17:59.392Z,12.57
2023-05-07T18:22:59.202Z,12.52
2023-05-07T18:27:59.147Z,12.45
2023-05-07T18:32:59.149Z,12.34
2023-05-07T18:37:59.023Z,12.23
2023-05-07T18:42:58.940Z,12.16
2023-05-07T18:47:58.929Z,12.02
2023-05-07T18:52:58.798Z,11.88
2023-05-07T18:57:58.743Z,11.80
2023-05-07T19:02:58.708Z,11.66
2023-05-07T19:07:58.619Z,11.55
2023-05-07T19:12:58.564Z,11.51
2023-05-07T19:17:58.515Z,11.41
2023-05-07T19:22:58.413Z,11.40
2023-05-07T19:27:58.344Z,11.33
2023-05-07T19:32:58.315Z,11.25
2023-05-07T19:37:58.218Z,11.16
2023-05-07T19:42:58.146Z,11.07
2023-05-07T19:47:58.120Z,11.03
2023-05-07T19:52:58.011Z,10.92
2023-05-07T19:57:57.942Z,10.85
2023-05-07T20:02:57.932Z,10.74
2023-05-07T20:07:57.808Z,10.63
2023-05-07T20:12:57.791Z,10.59
2023-05-07T20:17:57.706Z,10.56
2023-05-07T20:22:57.604Z,10.44
2023-05-07T20:27:57.544Z,10.34
2023-05-07T20:32:57.504Z,10.31
2023-05-07T20:37:57.463Z,10.28
2023-05-07T20:42:57.337Z,10.19
2023-05-07T20:47:57.344Z,10.15
2023-05-07T20:52:57.221Z,10.10
2023-05-07T20:57:57.148Z,10.04
2023-05-07T21:02:57.240Z,9.95
2023-05-07T21:07:57.009Z,9.91
2023-05-07T21:12:56.984Z,9.87
2023-05-07T21:17:56.947Z,9.82
2023-05-07T21:22:56.851Z,9.73
2023-05-07T21:27:56.741Z,9.72
2023-05-07T21:32:56.684Z,9.64
2023-05-07T21:37:56.624Z,9.58
2023-05-07T21:42:56.530Z,9.49
2023-05-07T21:47:56.499Z,9.47
2023-05-07T21:52:56.400Z,9.43
2023-05-07T21:58:04.866Z,9.36
2023-05-07T22:02:56.409Z,9.35
2023-05-07T22:07:56.222Z,9.28
2023-05-07T22:12:56.203Z,9.24
2023-05-07T22:17:56.133Z,9.18
2023-05-07T22:22:56.023Z,9.13
2023-05-07T22:27:55.941Z,9.07
2023-05-07T22:32:55.892Z,9.03
2023-05-07T22:37:55.819Z,9.03
2023-05-07T22:42:55.745Z,9.02
2023-05-07T22:47:55.689Z,8.99
2023-05-07T22:52:55.615Z,8.92
2023-05-07T22:57:55.548Z,8.91
2023-05-07T23:02:55.513Z,8.87
2023-05-07T23:07:55.412Z,8.82
2023-05-07T23:12:55.380Z,8.81
2023-05-07T23:17:55.327Z,8.81
2023-05-07T23:22:55.203Z,8.82
2023-05-07T23:27:55.146Z,8.71
2023-05-07T23:32:55.111Z,8.73
2023-05-07T23:37:55.010Z,8.66
2023-05-07T23:42:54.948Z,8.66
2023-05-07T23:47:54.921Z,8.70
2023-05-07T23:52:54.816Z,8.69
2023-05-07T23:57:54.755Z,8.70
